Necker Belle — MKYK7 — position and weather

sailwx.info

Track history (hours):
 
Tides and Currents Weather Stations Pressure Air Temp Water Temp Dewpoint Dewpoint Depression Visibility Wind Speed Wind Dir Waves Ship Positions

Necker Belle

Last reported at 2014-Nov-11 11:30 UTC. Time now 2014-Nov-22 01:52 UTC.
Position N 25°26' W 080°01'.
Warning: this ship's position is 10 days out of date.

Length 32 m.

Type: Sailing vessel. MMSI: 232728000.

Date/timePositionNaut miles runAvg speedWind from/ knotsBaromVisibWave heightAir tempDewpointWater temp
2014-Nov-11 11:30N 25°26' W 080°01'8 7.1
2014-Nov-11 10:24N 25°34' W 080°03'8 8.7
2014-Nov-11 09:28N 25°42' W 080°03'8 8.8
2014-Nov-11 08:33N 25°50' W 080°03'8 8.2
2014-Nov-11 07:34N 25°58' W 080°03'8 8.2
2014-Nov-11 06:34N 26°06' W 080°03'8 8.2
2014-Nov-11 05:34N 26°14' W 080°03'10 9.8
2014-Nov-11 04:34N 26°24' W 080°02'8 8.3
2014-Nov-11 03:33N 26°33' W 080°01'  
2014-Nov-05 19:06N 26°37' W 080°01'5 9.9
2014-Nov-05 18:33N 26°32' W 080°01'10 9.7
2014-Nov-05 17:33N 26°22' W 080°02'8 8.2
2014-Nov-05 16:33N 26°14' W 080°03'7 7.2
2014-Nov-05 15:33N 26°07' W 080°04'2 2.3
2014-Nov-05 14:33N 26°07' W 080°07'0 0.1
2014-Nov-05 13:23N 26°07' W 080°07'1 0.8
2014-Nov-05 12:31N 26°06' W 080°07'0 0.0
2014-Nov-05 11:22N 26°06' W 080°07'0 0.0
2014-Nov-05 10:22N 26°06' W 080°07'0 0.0
2014-Nov-05 09:25N 26°06' W 080°07'0 0.0
2014-Nov-05 08:25N 26°06' W 080°07'0 0.0
2014-Nov-05 07:28N 26°06' W 080°07'0 0.0
2014-Nov-05 06:28N 26°06' W 080°07'0 0.0
2014-Nov-05 05:28N 26°06' W 080°07'0 0.0
2014-Nov-05 04:31N 26°06' W 080°07'0 0.0
2014-Nov-05 03:31N 26°06' W 080°07'0 0.0
2014-Nov-05 02:31N 26°06' W 080°07'0 0.0
2014-Nov-05 01:31N 26°06' W 080°07'0 0.0
2014-Nov-05 00:31N 26°06' W 080°07'0 0.0
2014-Nov-04 23:31N 26°06' W 080°07'0 0.0
2014-Nov-04 22:31N 26°06' W 080°07'0 0.0
2014-Nov-04 21:22N 26°06' W 080°07'0 0.0
2014-Nov-04 20:25N 26°06' W 080°07'0 0.0
2014-Nov-04 19:25N 26°06' W 080°07'0 0.0
2014-Nov-04 18:25N 26°06' W 080°07'0 0.0
2014-Nov-04 17:28N 26°06' W 080°07'0 0.0
2014-Nov-04 16:28N 26°06' W 080°07'0 0.1
2014-Nov-04 15:29N 26°06' W 080°07'1 1.0
2014-Nov-04 14:29N 26°07' W 080°06'0 0.0
2014-Nov-04 13:32N 26°07' W 080°06'0 0.0
2014-Nov-04 12:32N 26°07' W 080°06'0 0.0
2014-Nov-04 11:32N 26°07' W 080°06'0 0.0
2014-Nov-04 10:32N 26°07' W 080°06'0 0.0
2014-Nov-04 09:32N 26°07' W 080°06'0 0.0
2014-Nov-04 08:32N 26°07' W 080°06'0 0.0
2014-Nov-04 07:23N 26°07' W 080°06'0 0.0
2014-Nov-04 06:23N 26°07' W 080°06'0 0.0
2014-Nov-04 05:23N 26°07' W 080°06'0 0.0
2014-Nov-04 04:26N 26°07' W 080°06'0 0.0
2014-Nov-04 03:26N 26°07' W 080°06'0 0.0
2014-Nov-04 02:29N 26°07' W 080°06'0 0.0
2014-Nov-04 01:29N 26°07' W 080°06'0 0.0
2014-Nov-04 00:29N 26°07' W 080°06'0 0.0
2014-Nov-03 23:29N 26°07' W 080°06'0 0.0
2014-Nov-03 22:32N 26°07' W 080°06'0 0.0
2014-Nov-03 21:32N 26°07' W 080°06'0 0.0
2014-Nov-03 20:32N 26°07' W 080°06'0 0.0
2014-Nov-03 19:32N 26°07' W 080°06'0 0.0
2014-Nov-03 19:05N 26°07' W 080°06'0 0.0
2014-Nov-03 18:32N 26°07' W 080°06'0 0.0
2014-Nov-03 18:08N 26°07' W 080°06'0 0.0
2014-Nov-03 17:50N 26°07' W 080°06'0 0.0
2014-Nov-03 17:32N 26°07' W 080°06'0 0.0
2014-Nov-03 16:23N 26°07' W 080°06'0 0.0
2014-Nov-03 14:26N 26°07' W 080°06'0 0.0
2014-Nov-03 13:26N 26°07' W 080°06'0 0.0
2014-Nov-03 12:26N 26°07' W 080°06'0 0.0
2014-Nov-03 11:29N 26°07' W 080°06'0 0.0
2014-Nov-03 10:29N 26°07' W 080°06'0 0.0
2014-Nov-03 09:32N 26°07' W 080°06'0 0.0
2014-Nov-03 08:32N 26°07' W 080°06'0 0.0
2014-Nov-03 07:32N 26°07' W 080°06'0 0.0
2014-Nov-03 06:32N 26°07' W 080°06'0 0.0
2014-Nov-03 05:32N 26°07' W 080°06'0 0.0
2014-Nov-03 04:32N 26°07' W 080°06'0 0.0
2014-Nov-03 03:32N 26°07' W 080°06'0 0.0
2014-Nov-03 02:23N 26°07' W 080°06'0 0.0
2014-Nov-03 01:26N 26°07' W 080°06'0 0.0
2014-Nov-03 00:26N 26°07' W 080°06'0 0.0
2014-Nov-02 23:26N 26°07' W 080°06'0 0.0
2014-Nov-02 22:29N 26°07' W 080°06'0 0.0
2014-Nov-02 21:29N 26°07' W 080°06'0 0.0
2014-Nov-02 20:32N 26°07' W 080°06'0 0.0
2014-Nov-02 19:32N 26°07' W 080°06'0 0.0
2014-Nov-02 18:32N 26°07' W 080°06'0 0.0
2014-Nov-02 17:32N 26°07' W 080°06'0 0.0
2014-Nov-02 16:32N 26°07' W 080°06'0 0.0
2014-Nov-02 15:32N 26°07' W 080°06'0 0.0
2014-Nov-02 14:32N 26°07' W 080°06'0 0.0
2014-Nov-02 13:32N 26°07' W 080°06'0 0.0
2014-Nov-02 12:23N 26°07' W 080°06'0 0.0
2014-Nov-02 11:23N 26°07' W 080°06'0 0.0
2014-Nov-02 10:26N 26°07' W 080°06'0 0.0
2014-Nov-02 09:26N 26°07' W 080°06'0 0.0
2014-Nov-02 08:29N 26°07' W 080°06'0 0.0
2014-Nov-02 07:29N 26°07' W 080°06'0 0.0
2014-Nov-02 06:29N 26°07' W 080°06'0 0.0
2014-Nov-02 05:32N 26°07' W 080°06'0 0.0
2014-Nov-02 04:32N 26°07' W 080°06'0 0.0
2014-Nov-02 03:32N 26°07' W 080°06'0 0.0
2014-Nov-02 02:32N 26°07' W 080°06'0 0.0
2014-Nov-02 01:32N 26°07' W 080°06'0 0.0
2014-Nov-02 00:32N 26°07' W 080°06'0 0.0
2014-Nov-01 23:32N 26°07' W 080°06'0 0.0
2014-Nov-01 22:23N 26°07' W 080°06'0 0.0
2014-Nov-01 21:23N 26°07' W 080°06'0 0.0
2014-Nov-01 20:26N 26°07' W 080°06'0 0.0
2014-Nov-01 19:26N 26°07' W 080°06'0 0.0
2014-Nov-01 18:29N 26°07' W 080°06'0 0.0
2014-Nov-01 17:29N 26°07' W 080°06'0 0.0
2014-Nov-01 16:29N 26°07' W 080°06'0 0.0
2014-Nov-01 15:32N 26°07' W 080°06'0 0.0
2014-Nov-01 14:32N 26°07' W 080°06'0 0.0
2014-Nov-01 13:32N 26°07' W 080°06'0 0.0
2014-Nov-01 12:32N 26°07' W 080°06'0 0.0
2014-Nov-01 11:32N 26°07' W 080°06'  
Track history (hours):
 
Tides and Currents Weather Stations Pressure Air Temp Water Temp Dewpoint Dewpoint Depression Visibility Wind Speed Wind Dir Waves Ship Positions

Necker Belle

Last reported at 2014-Nov-11 11:30 UTC. Time now 2014-Nov-22 01:52 UTC.
Position N 25°26' W 080°01'.
Warning: this ship's position is 10 days out of date.

Length 32 m.

Type: Sailing vessel. MMSI: 232728000.

Date/timePositionNaut miles runAvg speedWind from/ knotsBaromVisibWave heightAir tempDewpointWater temp
2014-Nov-11 11:30N 25°26' W 080°01'8 7.1
2014-Nov-11 10:24N 25°34' W 080°03'8 8.7
2014-Nov-11 09:28N 25°42' W 080°03'8 8.8
2014-Nov-11 08:33N 25°50' W 080°03'8 8.2
2014-Nov-11 07:34N 25°58' W 080°03'8 8.2
2014-Nov-11 06:34N 26°06' W 080°03'8 8.2
2014-Nov-11 05:34N 26°14' W 080°03'10 9.8
2014-Nov-11 04:34N 26°24' W 080°02'8 8.3
2014-Nov-11 03:33N 26°33' W 080°01'  
2014-Nov-05 19:06N 26°37' W 080°01'5 9.9
2014-Nov-05 18:33N 26°32' W 080°01'10 9.7
2014-Nov-05 17:33N 26°22' W 080°02'8 8.2
2014-Nov-05 16:33N 26°14' W 080°03'7 7.2
2014-Nov-05 15:33N 26°07' W 080°04'2 2.3
2014-Nov-05 14:33N 26°07' W 080°07'0 0.1
2014-Nov-05 13:23N 26°07' W 080°07'1 0.8
2014-Nov-05 12:31N 26°06' W 080°07'0 0.0
2014-Nov-05 11:22N 26°06' W 080°07'0 0.0
2014-Nov-05 10:22N 26°06' W 080°07'0 0.0
2014-Nov-05 09:25N 26°06' W 080°07'0 0.0
2014-Nov-05 08:25N 26°06' W 080°07'0 0.0
2014-Nov-05 07:28N 26°06' W 080°07'0 0.0
2014-Nov-05 06:28N 26°06' W 080°07'0 0.0
2014-Nov-05 05:28N 26°06' W 080°07'0 0.0
2014-Nov-05 04:31N 26°06' W 080°07'0 0.0
2014-Nov-05 03:31N 26°06' W 080°07'0 0.0
2014-Nov-05 02:31N 26°06' W 080°07'0 0.0
2014-Nov-05 01:31N 26°06' W 080°07'0 0.0
2014-Nov-05 00:31N 26°06' W 080°07'0 0.0
2014-Nov-04 23:31N 26°06' W 080°07'0 0.0
2014-Nov-04 22:31N 26°06' W 080°07'0 0.0
2014-Nov-04 21:22N 26°06' W 080°07'0 0.0
2014-Nov-04 20:25N 26°06' W 080°07'0 0.0
2014-Nov-04 19:25N 26°06' W 080°07'0 0.0
2014-Nov-04 18:25N 26°06' W 080°07'0 0.0
2014-Nov-04 17:28N 26°06' W 080°07'0 0.0
2014-Nov-04 16:28N 26°06' W 080°07'0 0.1
2014-Nov-04 15:29N 26°06' W 080°07'1 1.0
2014-Nov-04 14:29N 26°07' W 080°06'0 0.0
2014-Nov-04 13:32N 26°07' W 080°06'0 0.0
2014-Nov-04 12:32N 26°07' W 080°06'0 0.0
2014-Nov-04 11:32N 26°07' W 080°06'0 0.0
2014-Nov-04 10:32N 26°07' W 080°06'0 0.0
2014-Nov-04 09:32N 26°07' W 080°06'0 0.0
2014-Nov-04 08:32N 26°07' W 080°06'0 0.0
2014-Nov-04 07:23N 26°07' W 080°06'0 0.0
2014-Nov-04 06:23N 26°07' W 080°06'0 0.0
2014-Nov-04 05:23N 26°07' W 080°06'0 0.0
2014-Nov-04 04:26N 26°07' W 080°06'0 0.0
2014-Nov-04 03:26N 26°07' W 080°06'0 0.0
2014-Nov-04 02:29N 26°07' W 080°06'0 0.0
2014-Nov-04 01:29N 26°07' W 080°06'0 0.0
2014-Nov-04 00:29N 26°07' W 080°06'0 0.0
2014-Nov-03 23:29N 26°07' W 080°06'0 0.0
2014-Nov-03 22:32N 26°07' W 080°06'0 0.0
2014-Nov-03 21:32N 26°07' W 080°06'0 0.0
2014-Nov-03 20:32N 26°07' W 080°06'0 0.0
2014-Nov-03 19:32N 26°07' W 080°06'0 0.0
2014-Nov-03 19:05N 26°07' W 080°06'0 0.0
2014-Nov-03 18:32N 26°07' W 080°06'0 0.0
2014-Nov-03 18:08N 26°07' W 080°06'0 0.0
2014-Nov-03 17:50N 26°07' W 080°06'0 0.0
2014-Nov-03 17:32N 26°07' W 080°06'0 0.0
2014-Nov-03 16:23N 26°07' W 080°06'0 0.0
2014-Nov-03 14:26N 26°07' W 080°06'0 0.0
2014-Nov-03 13:26N 26°07' W 080°06'0 0.0
2014-Nov-03 12:26N 26°07' W 080°06'0 0.0
2014-Nov-03 11:29N 26°07' W 080°06'0 0.0
2014-Nov-03 10:29N 26°07' W 080°06'0 0.0
2014-Nov-03 09:32N 26°07' W 080°06'0 0.0
2014-Nov-03 08:32N 26°07' W 080°06'0 0.0
2014-Nov-03 07:32N 26°07' W 080°06'0 0.0
2014-Nov-03 06:32N 26°07' W 080°06'0 0.0
2014-Nov-03 05:32N 26°07' W 080°06'0 0.0
2014-Nov-03 04:32N 26°07' W 080°06'0 0.0
2014-Nov-03 03:32N 26°07' W 080°06'0 0.0
2014-Nov-03 02:23N 26°07' W 080°06'0 0.0
2014-Nov-03 01:26N 26°07' W 080°06'0 0.0
2014-Nov-03 00:26N 26°07' W 080°06'0 0.0
2014-Nov-02 23:26N 26°07' W 080°06'0 0.0
2014-Nov-02 22:29N 26°07' W 080°06'0 0.0
2014-Nov-02 21:29N 26°07' W 080°06'0 0.0
2014-Nov-02 20:32N 26°07' W 080°06'0 0.0
2014-Nov-02 19:32N 26°07' W 080°06'0 0.0
2014-Nov-02 18:32N 26°07' W 080°06'0 0.0
2014-Nov-02 17:32N 26°07' W 080°06'0 0.0
2014-Nov-02 16:32N 26°07' W 080°06'0 0.0
2014-Nov-02 15:32N 26°07' W 080°06'0 0.0
2014-Nov-02 14:32N 26°07' W 080°06'0 0.0
2014-Nov-02 13:32N 26°07' W 080°06'0 0.0
2014-Nov-02 12:23N 26°07' W 080°06'0 0.0
2014-Nov-02 11:23N 26°07' W 080°06'0 0.0
2014-Nov-02 10:26N 26°07' W 080°06'0 0.0
2014-Nov-02 09:26N 26°07' W 080°06'0 0.0
2014-Nov-02 08:29N 26°07' W 080°06'0 0.0
2014-Nov-02 07:29N 26°07' W 080°06'0 0.0
2014-Nov-02 06:29N 26°07' W 080°06'0 0.0
2014-Nov-02 05:32N 26°07' W 080°06'0 0.0
2014-Nov-02 04:32N 26°07' W 080°06'0 0.0
2014-Nov-02 03:32N 26°07' W 080°06'0 0.0
2014-Nov-02 02:32N 26°07' W 080°06'0 0.0
2014-Nov-02 01:32N 26°07' W 080°06'0 0.0
2014-Nov-02 00:32N 26°07' W 080°06'0 0.0
2014-Nov-01 23:32N 26°07' W 080°06'0 0.0
2014-Nov-01 22:23N 26°07' W 080°06'0 0.0
2014-Nov-01 21:23N 26°07' W 080°06'0 0.0
2014-Nov-01 20:26N 26°07' W 080°06'0 0.0
2014-Nov-01 19:26N 26°07' W 080°06'0 0.0
2014-Nov-01 18:29N 26°07' W 080°06'0 0.0
2014-Nov-01 17:29N 26°07' W 080°06'0 0.0
2014-Nov-01 16:29N 26°07' W 080°06'0 0.0
2014-Nov-01 15:32N 26°07' W 080°06'0 0.0
2014-Nov-01 14:32N 26°07' W 080°06'0 0.0
2014-Nov-01 13:32N 26°07' W 080°06'0 0.0
2014-Nov-01 12:32N 26°07' W 080°06'0 0.0
2014-Nov-01 11:32N 26°07' W 080°06'  

Dump ship's entire track history